METAR Formatted Surface Weather Observation
Issued by NWS Corpus Christi, TX

Home | Current Version | Previous Version | Text Only | Print | Product List | Glossary On
Versions: 1
000
SAUS44 KCRP 261815 COR
MTRVCT
SPECI KVCT 261808Z 17013KT 1 1/2SM +RA BR OVC028 26/23 A3006 RMK AO2
WSHFT 1741 P0003 T02560233



USA.gov is the U.S. government's official web portal to all federal, state and local government web resources and services.